Latest Weather Observations for Loxton

IDS60801

Issued at 10:02 am CDT Sunday 29 March 2015 (issued every 30 minutes, with the page automatically refreshed every 10 minutes)

About weather observations | Map of weather stations | Latest weather observations for SA | Other Formats
Station Details ID: 024024 Name: LOXTON RESEARCH CENTRE Lat: -34.44 Lon: 140.60 Height: 30.1 m
Data from the previous 72 hours. | See also: Recent months at Loxton
Date/Time
CDT
Temp
°C
App
Temp
°C
Dew
Point
Rel
Hum
%
Delta-T
°C
Wind Press
QNH
hPa
Press
MSL
hPa
Rain
since 9 am
mm
Dir
 
Spd
km/h
Gust
km/h
Spd
kts
Gust
kts
29/10:00am 19.8 18.0 7.2 44 6.4 WSW 6 9 3 5 1024.1 1024.0 0.0
29/09:30am 18.3 17.6 6.9 47 5.7 CALM 0 0 0 0 1024.0 1023.9 0.0
29/09:00am 17.1 16.8 8.7 57 4.3 CALM 0 0 0 0 1023.8 1023.7 0.0
29/08:30am 15.7 15.9 10.4 71 2.8 CALM 0 0 0 0 1023.3 1023.2 0.0
29/08:00am 14.5 14.7 10.7 78 2.0 CALM 0 0 0 0 1023.0 1022.9 0.0
29/07:30am 14.0 14.1 10.1 77 2.0 CALM 0 0 0 0 1022.6 1022.5 0.0
29/07:00am 13.7 14.0 10.8 83 1.5 CALM 0 0 0 0 1022.2 1022.1 0.0
29/06:30am 13.6 13.8 10.5 81 1.6 CALM 0 0 0 0 1021.7 1021.6 0.0
29/06:00am 13.4 13.7 10.9 85 1.3 CALM 0 0 0 0 1021.0 1020.9 0.0
29/05:30am 13.2 13.2 9.9 80 1.7 CALM 0 0 0 0 1021.1 1021.0 0.0
29/05:00am 13.1 13.2 10.2 82 1.5 CALM 0 0 0 0 1020.9 1020.8 0.0
29/04:30am 12.9 13.1 10.4 85 1.3 CALM 0 0 0 0 1020.9 1020.8 0.0
29/04:00am 13.0 13.2 10.5 85 1.3 CALM 0 0 0 0 1021.0 1020.9 0.0
29/03:30am 13.1 13.2 10.2 82 1.5 CALM 0 0 0 0 1021.0 1020.9 0.0
29/03:00am 12.9 13.0 10.0 82 1.5 CALM 0 0 0 0 1021.1 1021.0 0.0
29/02:30am 12.9 13.0 10.0 82 1.5 CALM 0 0 0 0 1021.6 1021.5 0.0
29/02:00am 12.8 12.8 9.7 81 1.6 CALM 0 0 0 0 1021.9 1021.8 0.0
29/01:30am 12.5 12.4 9.3 81 1.6 CALM 0 0 0 0 1021.8 1021.7 0.0
29/01:00am 12.7 12.8 10.0 84 1.4 CALM 0 0 0 0 1021.6 1021.5 0.0
29/12:30am 13.1 13.2 10.0 81 1.6 CALM 0 0 0 0 1021.8 1021.7 0.0
29/12:00am 13.4 13.5 10.1 80 1.7 CALM 0 0 0 0 1022.1 1022.0 0.0
 
Date/Time
CDT
Temp
°C
App
Temp
°C
Dew
Point
Rel
Hum
%
Delta-T
°C
Wind Press
QNH
hPa
Press
MSL
hPa
Rain
since 9 am
mm
Dir
 
Spd
km/h
Gust
km/h
Spd
kts
Gust
kts
28/11:30pm 13.5 13.6 10.0 79 1.8 CALM 0 0 0 0 1022.1 1022.0 0.0
28/11:00pm 13.9 14.1 10.6 80 1.7 CALM 0 0 0 0 1022.3 1022.2 0.0
28/10:30pm 14.2 14.4 10.4 78 2.0 CALM 0 0 0 0 1022.3 1022.2 0.0
28/10:00pm 14.1 14.1 9.8 75 2.2 CALM 0 0 0 0 1022.4 1022.3 0.0
28/09:30pm 15.0 15.3 11.0 77 2.1 CALM 0 0 0 0 1022.3 1022.2 0.0
28/09:00pm 15.8 16.0 10.5 71 2.8 CALM 0 0 0 0 1022.1 1022.0 0.0
28/08:30pm 15.8 16.1 10.9 72 2.6 CALM 0 0 0 0 1021.7 1021.6 0.0
28/08:00pm 17.2 17.3 10.2 63 3.7 CALM 0 0 0 0 1021.6 1021.5 0.0
28/07:30pm 18.2 18.5 10.8 62 4.0 CALM 0 0 0 0 1021.4 1021.3 0.0
28/07:00pm 19.7 18.5 9.5 51 5.4 NNW 6 7 3 4 1021.2 1021.1 0.0
28/06:30pm 21.6 19.6 7.2 39 7.4 W 7 7 4 4 1021.1 1021.0 0.0
28/06:00pm 22.1 20.0 6.6 36 7.9 NW 7 11 4 6 1021.2 1021.1 0.0
28/05:30pm 22.3 19.7 6.3 35 8.1 N 9 15 5 8 1021.3 1021.2 0.0
28/05:00pm 22.7 20.1 6.1 34 8.4 N 9 13 5 7 1021.2 1021.1 0.0
28/04:30pm 22.5 20.0 6.6 35 8.1 N 9 17 5 9 1021.3 1021.2 0.0
28/04:00pm 23.1 20.5 6.2 33 8.6 SSW 9 15 5 8 1021.6 1021.5 0.0
28/03:30pm 23.0 20.9 6.6 34 8.4 NNW 7 11 4 6 1022.1 1022.0 0.0
28/03:00pm 22.0 19.4 6.1 35 8.0 NW 9 20 5 11 1022.5 1022.4 0.0
28/02:30pm 22.0 19.6 6.9 37 7.7 NNE 9 17 5 9 1023.0 1022.9 0.0
28/02:00pm 21.3 19.3 7.0 39 7.3 NNE 7 17 4 9 1023.5 1023.4 0.0
28/01:30pm 20.8 18.8 7.3 41 6.9 NNE 7 13 4 7 1024.0 1023.9 0.0
28/01:00pm 20.6 17.8 7.0 41 6.9 WNW 11 19 6 10 1024.3 1024.2 0.0
28/12:30pm 20.0 17.7 7.4 44 6.4 NE 9 13 5 7 1024.8 1024.7 0.0
28/12:00pm 19.1 16.7 7.2 46 6.0 NNE 9 19 5 10 1025.5 1025.4 0.0
28/11:30am 18.6 15.9 7.5 48 5.6 N 11 20 6 11 1026.0 1025.9 0.0
28/11:00am 18.2 16.1 8.2 52 5.1 N 9 19 5 10 1026.3 1026.2 0.0
28/10:30am 17.2 14.8 8.8 57 4.3 ENE 11 15 6 8 1026.6 1026.5 0.0
28/10:00am 16.4 14.1 9.0 61 3.8 ENE 11 19 6 10 1026.5 1026.4 0.0
28/09:30am 14.9 13.0 9.2 68 2.9 E 9 13 5 7 1026.6 1026.5 0.0
28/09:00am 12.6 12.3 8.8 77 1.9 CALM 0 0 0 0 1027.0 1026.9 0.0
28/08:30am 10.0 9.4 7.5 84 1.2 CALM 0 0 0 0 1026.6 1026.5 0.0
28/08:00am 7.9 6.8 5.2 83 1.2 CALM 0 0 0 0 1026.4 1026.3 0.0
28/07:30am 5.4 4.0 3.5 87 0.8 CALM 0 0 0 0 1026.3 1026.2 0.0
28/07:00am 5.2 3.8 3.8 91 0.6 CALM 0 0 0 0 1025.9 1025.8 0.0
28/06:30am 5.4 4.0 3.7 89 0.7 CALM 0 0 0 0 1026.0 1025.9 0.0
28/06:00am 5.7 4.4 4.0 89 0.7 CALM 0 0 0 0 1025.8 1025.7 0.0
28/05:30am 5.9 4.6 4.0 88 0.8 CALM 0 0 0 0 1025.6 1025.5 0.0
28/05:00am 6.1 4.9 4.5 89 0.7 CALM 0 0 0 0 1025.3 1025.2 0.0
28/04:30am 6.4 5.2 4.5 88 0.8 CALM 0 0 0 0 1025.2 1025.1 0.0
28/04:00am 6.7 5.5 4.6 86 0.9 CALM 0 0 0 0 1025.2 1025.1 0.0
28/03:30am 7.1 6.0 5.3 88 0.8 CALM 0 0 0 0 1025.2 1025.1 0.0
28/03:00am 7.8 6.7 5.3 84 1.1 CALM 0 0 0 0 1025.6 1025.5 0.0
28/02:30am 8.8 7.1 5.9 82 1.3 SW 4 9 2 5 1026.0 1025.9 0.0
28/02:00am 8.8 6.6 6.2 84 1.2 SSW 7 11 4 6 1026.1 1026.0 0.0
28/01:30am 9.5 7.4 6.7 83 1.3 SSW 7 9 4 5 1025.9 1025.8 0.0
28/01:00am 9.7 7.7 6.9 83 1.3 SSW 7 9 4 5 1026.0 1025.9 0.0
28/12:30am 8.7 6.2 6.5 86 1.0 S 9 11 5 6 1026.0 1025.9 0.0
28/12:00am 9.5 7.3 6.2 80 1.5 S 7 9 4 5 1026.4 1026.3 0.0
 
Date/Time
CDT
Temp
°C
App
Temp
°C
Dew
Point
Rel
Hum
%
Delta-T
°C
Wind Press
QNH
hPa
Press
MSL
hPa
Rain
since 9 am
mm
Dir
 
Spd
km/h
Gust
km/h
Spd
kts
Gust
kts
27/11:30pm 10.5 8.4 6.7 77 1.8 S 7 9 4 5 1026.6 1026.5 0.0
27/11:00pm 11.7 9.8 7.5 75 2.0 SSW 7 9 4 5 1026.7 1026.6 0.0
27/10:30pm 12.4 10.4 7.2 70 2.5 SSW 7 9 4 5 1026.8 1026.7 0.0
27/10:00pm 13.2 11.3 7.4 68 2.8 SSW 7 9 4 5 1026.5 1026.4 0.0
27/09:30pm 14.3 12.2 6.6 60 3.7 S 7 9 4 5 1026.4 1026.3 0.0
27/09:00pm 15.6 12.7 6.5 54 4.4 S 11 13 6 7 1026.3 1026.2 0.0
27/08:30pm 16.4 13.0 6.1 50 5.0 SSW 13 19 7 10 1026.0 1025.9 0.0
27/08:00pm 17.1 13.3 5.7 47 5.5 SSW 15 20 8 11 1025.6 1025.5 0.0
27/07:30pm 17.5 14.6 4.9 43 6.0 S 9 11 5 6 1025.3 1025.2 0.0
27/07:00pm 18.8 15.5 4.6 39 6.8 S 11 15 6 8 1025.2 1025.1 0.0
27/06:30pm 19.8 15.6 3.7 34 7.6 S 15 22 8 12 1025.0 1024.9 0.0
27/06:00pm 20.3 15.7 3.9 34 7.8 S 17 24 9 13 1025.0 1024.9 0.0
27/05:30pm 20.2 15.6 3.8 34 7.8 SSW 17 22 9 12 1024.8 1024.7 0.0
27/05:00pm 20.5 16.0 4.0 33 7.9 SSW 17 24 9 13 1024.8 1024.7 0.0
27/04:30pm 20.7 16.2 4.0 33 8.0 SSW 17 28 9 15 1025.0 1024.9 0.0
27/04:00pm 20.0 15.5 4.4 35 7.5 SSW 17 24 9 13 1025.3 1025.2 0.0
27/03:30pm 19.7 15.2 4.2 36 7.4 WSW 17 30 9 16 1025.5 1025.4 0.0
27/03:00pm 20.3 15.8 4.2 34 7.7 S 17 32 9 17 1025.7 1025.6 0.0
27/02:30pm 19.7 15.6 4.5 36 7.3 SW 15 24 8 13 1026.0 1025.9 0.0
27/02:00pm 19.2 15.1 4.6 38 7.0 SSW 15 28 8 15 1026.5 1026.4 0.0
27/01:30pm 18.8 14.5 5.1 40 6.6 SW 17 30 9 16 1027.0 1026.9 0.0
27/01:00pm 17.9 13.6 5.2 43 6.1 S 17 22 9 12 1027.8 1027.7 0.0
27/12:30pm 17.9 14.0 5.2 43 6.1 SSW 15 28 8 15 1028.3 1028.2 0.0
27/12:00pm 17.6 13.5 4.4 41 6.2 SSW 15 22 8 12 1028.4 1028.3 0.0
27/11:30am 17.1 12.7 4.8 44 5.8 SSW 17 28 9 15 1028.9 1028.8 0.0
27/11:00am 17.1 12.5 5.4 46 5.6 SSW 19 32 10 17 1029.0 1028.9 0.0
27/10:30am 16.3 13.0 6.4 52 4.8 SSW 13 17 7 9 1029.3 1029.2 0.0
27/10:00am 15.6 12.9 7.3 57 4.1 SW 11 17 6 9 1029.2 1029.1 0.0
27/09:30am 14.8 12.1 7.2 60 3.7 SSW 11 17 6 9 1029.1 1029.0 0.0
27/09:00am 14.3 12.2 8.3 67 3.0 WSW 9 11 5 6 1029.1 1029.0 0.0
27/08:30am 13.5 11.7 8.0 69 2.7 W 7 11 4 6 1028.9 1028.8 0.0
27/08:00am 12.8 11.0 7.9 72 2.4 W 7 11 4 6 1028.6 1028.5 0.0
27/07:30am 12.2 10.4 8.1 76 2.0 W 7 9 4 5 1028.3 1028.2 0.0
27/07:00am 10.9 9.1 7.8 81 1.5 WNW 7 7 4 4 1028.0 1027.9 0.0
27/06:30am 12.6 10.8 8.1 74 2.2 W 7 11 4 6 1027.7 1027.6 0.0
27/06:00am 12.2 10.4 8.1 76 2.0 W 7 9 4 5 1027.5 1027.4 0.0
27/05:30am 13.2 10.6 7.9 70 2.6 W 11 19 6 10 1027.1 1027.0 0.0
27/05:00am 13.0 10.9 8.3 73 2.3 WSW 9 17 5 9 1027.0 1026.9 0.0
27/04:30am 12.9 10.8 8.2 73 2.3 WSW 9 13 5 7 1026.9 1026.8 0.0
27/04:00am 12.9 10.5 8.5 74 2.2 WSW 11 15 6 8 1026.9 1026.8 0.0
27/03:30am 12.9 10.4 8.2 73 2.3 WSW 11 17 6 9 1026.9 1026.8 0.0
27/03:00am 13.0 10.5 8.1 72 2.4 WSW 11 15 6 8 1027.1 1027.0 0.0
27/02:30am 13.1 10.6 8.0 71 2.5 WSW 11 17 6 9 1027.2 1027.1 0.0
27/02:00am 13.2 10.3 8.1 71 2.5 SW 13 17 7 9 1027.3 1027.2 0.0
27/01:30am 13.4 10.1 8.1 70 2.6 WSW 15 22 8 12 1027.5 1027.4 0.0
27/01:00am 13.4 11.0 7.2 66 3.0 SW 9 15 5 8 1027.6 1027.5 0.0
27/12:30am 13.4 10.5 6.7 64 3.2 SW 11 15 6 8 1027.5 1027.4 0.0
27/12:00am 13.3 10.0 6.6 64 3.2 SW 13 17 7 9 1027.7 1027.6 0.0
 
Date/Time
CDT
Temp
°C
App
Temp
°C
Dew
Point
Rel
Hum
%
Delta-T
°C
Wind Press
QNH
hPa
Press
MSL
hPa
Rain
since 9 am
mm
Dir
 
Spd
km/h
Gust
km/h
Spd
kts
Gust
kts
26/11:30pm 13.0 10.5 6.7 65 3.0 WSW 9 13 5 7 1027.7 1027.6 0.0
26/11:00pm 13.2 10.3 6.7 64 3.1 SW 11 17 6 9 1027.7 1027.6 0.0
26/10:30pm 13.9 10.6 6.3 60 3.6 SSW 13 20 7 11 1027.7 1027.6 0.0
26/10:00pm 13.1 8.9 5.6 60 3.5 SSW 17 24 9 13 1027.7 1027.6 0.0
26/09:30pm 13.3 9.6 4.5 55 4.0 SSW 13 19 7 10 1027.5 1027.4 0.0
26/09:00pm 13.6 9.5 4.4 53 4.2 SSW 15 20 8 11 1027.1 1027.0 0.0
26/08:30pm 13.9 10.3 4.8 54 4.2 SW 13 20 7 11 1026.9 1026.8 0.0
26/08:00pm 14.5 10.4 4.2 50 4.7 SSW 15 20 8 11 1026.6 1026.5 0.0
26/07:30pm 15.1 9.6 4.0 47 5.1 SSW 22 30 12 16 1026.3 1026.2 0.0
26/07:00pm 16.1 11.1 4.5 46 5.4 SSW 20 33 11 18 1025.9 1025.8 0.0
26/06:30pm 17.4 11.3 2.6 37 6.7 SW 24 33 13 18 1025.5 1025.4 0.0
26/06:00pm 18.0 10.6 1.7 33 7.3 SW 30 43 16 23 1025.0 1024.9 0.0
26/05:30pm 17.9 11.1 3.1 37 6.8 SW 28 39 15 21 1024.7 1024.6 0.0
26/05:00pm 18.3 11.6 1.5 32 7.5 SW 26 39 14 21 1024.5 1024.4 0.0
26/04:30pm 20.5 14.0 0.6 26 8.9 SW 24 37 13 20 1024.2 1024.1 0.0
26/04:00pm 18.7 12.3 0.9 30 7.9 WSW 24 39 13 21 1024.2 1024.1 0.0
26/03:30pm 19.3 12.0 -0.2 27 8.5 SW 28 39 15 21 1024.3 1024.2 0.0
26/03:00pm 18.9 12.4 2.9 34 7.4 SW 26 41 14 22 1024.6 1024.5 0.0
26/02:30pm 19.4 13.3 2.8 33 7.7 WSW 24 35 13 19 1024.5 1024.4 0.0
26/02:00pm 18.9 12.3 1.9 32 7.7 WSW 26 39 14 21 1024.9 1024.8 0.0
26/01:30pm 17.9 12.0 1.5 33 7.3 SW 22 33 12 18 1025.2 1025.1 0.0
26/01:00pm 17.2 10.7 2.6 37 6.6 WSW 26 39 14 21 1025.5 1025.4 0.0
26/12:30pm 17.1 11.0 2.8 38 6.5 WSW 24 33 13 18 1025.7 1025.6 0.0
26/12:00pm 16.2 10.2 3.2 41 5.9 SW 24 37 13 20 1025.9 1025.8 0.0
26/11:30am 16.0 10.3 2.9 41 5.9 WSW 22 35 12 19 1026.0 1025.9 0.0
26/11:00am 15.2 9.8 4.7 49 4.9 WSW 22 37 12 20 1026.1 1026.0 0.0
26/10:30am 15.2 10.2 4.4 48 5.0 WSW 20 30 11 16 1026.0 1025.9 0.0

Other Formats:

Comma delimited format used in spreadsheet applications
http://www.bom.gov.au/fwo/IDS60801/IDS60801.94682.axf

JavaScript Object Notation format (JSON) in row-major order
http://www.bom.gov.au/fwo/IDS60801/IDS60801.94682.json